Time;durP1;ratioP1;P1;durP2;ratioP2;P2;SDS_P1;SDS_P2;PMS_P1;PMS_P2;Temp;Humidity;BMP_temperature;BMP_pressure;BME280_temperature;BME280_humidity;BME280_pressure;Samples;Min_cycle;Max_cycle;Signal;HPM_P1;HPM_P2
2022/03/26 00:01:39;;;;;;;27.35;15.25;;;7.40;1.00;;;7.40;65.40;99075.41;5050676;27;129634;-67
2022/03/26 00:04:08;;;;;;;29.20;14.60;;;7.30;1.00;;;7.37;65.33;99068.72;5048623;27;119739;-69
2022/03/26 00:06:36;;;;;;;28.83;15.15;;;7.30;1.00;;;7.31;65.51;99070.72;5044693;27;119461;-68
2022/03/26 00:09:05;;;;;;;27.80;14.80;;;7.20;1.00;;;7.30;65.34;99062.91;5041119;27;130463;-69
2022/03/26 00:11:34;;;;;;;30.00;15.65;;;7.20;1.00;;;7.28;65.48;99054.31;5025916;27;129766;-67
2022/03/26 00:14:02;;;;;;;30.73;14.68;;;7.20;1.00;;;7.22;65.50;99048.22;5041207;27;119440;-69
2022/03/26 00:16:31;;;;;;;33.80;15.85;;;7.20;1.00;;;7.30;65.17;99041.31;5026835;27;118362;-68
2022/03/26 00:19:01;;;;;;;26.95;15.25;;;7.40;1.00;;;7.27;65.49;99036.53;5022569;27;130556;-68
2022/03/26 00:21:30;;;;;;;29.83;15.93;;;7.30;1.00;;;7.25;65.57;99038.72;5040765;27;129427;-68
2022/03/26 00:23:58;;;;;;;28.63;16.58;;;7.30;1.00;;;7.31;65.38;99029.44;5039647;27;121944;-67
2022/03/26 00:26:27;;;;;;;28.00;16.10;;;7.30;1.00;;;7.32;65.21;99034.53;5040793;27;122251;-67
2022/03/26 00:28:56;;;;;;;36.10;17.67;;;7.30;1.00;;;7.27;65.40;99020.31;5025763;27;129597;-66
2022/03/26 00:31:24;;;;;;;31.73;17.88;;;7.30;1.00;;;7.31;64.87;99022.13;5041001;27;129299;-66
2022/03/26 00:33:53;;;;;;;28.25;15.15;;;7.20;1.00;;;7.23;65.24;99025.53;5040772;27;120904;-66
2022/03/26 00:36:23;;;;;;;28.52;16.95;;;7.30;1.00;;;7.30;64.74;99030.53;5008494;27;119185;-67
2022/03/26 00:38:52;;;;;;;32.45;17.15;;;7.30;1.00;;;7.20;65.65;99037.72;5025436;27;129411;-68
2022/03/26 00:41:22;;;;;;;30.67;16.55;;;7.20;1.00;;;7.16;65.15;99031.31;5040868;27;129595;-67
2022/03/26 00:43:51;;;;;;;34.80;17.25;;;7.20;1.00;;;7.18;65.16;99018.34;5040514;27;120649;-68
2022/03/26 00:46:19;;;;;;;31.00;16.58;;;7.20;1.00;;;7.16;65.46;99009.72;5040423;27;119388;-67
2022/03/26 00:48:48;;;;;;;31.98;16.42;;;7.20;1.00;;;7.15;65.05;99002.75;5024070;27;130340;-68
2022/03/26 00:51:18;;;;;;;29.85;16.60;;;7.20;1.00;;;7.11;65.76;98990.16;5040043;27;129591;-67
2022/03/26 00:53:49;;;;;;;33.08;17.05;;;7.20;1.00;;;7.12;65.77;98987.16;5040323;27;120034;-68
2022/03/26 00:56:17;;;;;;;36.58;17.20;;;7.20;1.00;;;7.24;65.67;98988.53;5040555;27;119465;-67
2022/03/26 00:58:45;;;;;;;33.72;17.55;;;7.30;1.00;;;7.19;65.56;98971.34;5039701;27;129670;-67
2022/03/26 01:01:14;;;;;;;33.55;18.33;;;7.40;1.00;;;7.23;65.69;98965.34;5039569;27;130347;-66
2022/03/26 01:03:42;;;;;;;34.30;18.10;;;7.40;1.00;;;7.28;65.54;98973.34;5025597;27;119887;-67
2022/03/26 01:06:11;;;;;;;32.17;17.77;;;7.40;1.00;;;7.28;65.40;98959.84;5040400;27;120090;-68
2022/03/26 01:08:39;;;;;;;35.00;17.45;;;7.30;1.00;;;7.32;65.60;98956.25;5024749;27;130150;-68
2022/03/26 01:11:09;;;;;;;34.55;18.33;;;7.40;1.00;;;7.33;65.38;98944.34;5039907;27;130382;-67
2022/03/26 01:13:39;;;;;;;37.85;17.58;;;7.50;1.00;;;7.40;65.27;98946.59;5038839;27;121985;-68
2022/03/26 01:16:08;;;;;;;46.83;19.00;;;7.50;1.00;;;7.42;65.53;98932.81;5039745;27;122602;-68
2022/03/26 01:18:36;;;;;;;36.38;17.27;;;7.50;1.00;;;7.46;65.59;98923.00;5039802;27;129874;-67
2022/03/26 01:21:05;;;;;;;44.70;19.05;;;7.70;1.00;;;7.50;65.71;98932.91;5039685;27;130047;-68
2022/03/26 01:23:34;;;;;;;37.20;18.40;;;7.60;1.00;;;7.46;66.08;98915.69;5024623;27;119295;-67
2022/03/26 01:26:04;;;;;;;43.60;17.33;;;7.70;1.00;;;7.52;65.74;98916.38;5040681;27;119448;-67
2022/03/26 01:28:34;;;;;;;37.55;18.48;;;7.70;1.00;;;7.44;66.56;98901.72;5041689;27;130024;-67
2022/03/26 01:31:03;;;;;;;35.88;17.40;;;7.60;1.00;;;7.38;66.63;98902.94;5041872;27;129527;-65
2022/03/26 01:33:31;;;;;;;32.88;18.75;;;7.60;1.00;;;7.41;66.58;98885.34;5044413;27;119748;-67
2022/03/26 01:36:00;;;;;;;36.80;19.00;;;7.60;1.00;;;7.34;66.63;98877.66;5039954;27;120131;-68
2022/03/26 01:38:28;;;;;;;36.95;18.88;;;7.60;1.00;;;7.34;66.86;98872.28;5038261;27;130495;-68
2022/03/26 01:40:57;;;;;;;32.22;18.30;;;7.50;1.00;;;7.35;66.75;98868.44;5024373;27;129857;-68
2022/03/26 01:43:27;;;;;;;33.45;18.58;;;7.40;1.00;;;7.33;66.61;98873.34;5039860;27;120215;-67
2022/03/26 01:45:56;;;;;;;36.78;17.98;;;7.40;1.00;;;7.25;66.91;98860.59;5024919;27;119330;-68
2022/03/26 01:48:25;;;;;;;37.72;19.23;;;7.40;1.00;;;7.19;67.32;98860.69;5039033;27;130213;-67
2022/03/26 01:50:54;;;;;;;30.67;17.30;;;7.40;1.00;;;7.16;67.46;98847.81;5041107;27;130076;-68
2022/03/26 01:53:22;;;;;;;33.10;18.67;;;7.30;1.00;;;7.12;67.90;98829.84;5041371;27;119965;-68
2022/03/26 01:55:52;;;;;;;32.45;17.65;;;7.30;1.00;;;7.04;68.45;98831.34;5040817;27;119613;-69
2022/03/26 01:58:21;;;;;;;34.58;18.75;;;7.30;1.00;;;7.05;68.21;98822.16;5039988;27;129925;-69
2022/03/26 02:00:49;;;;;;;37.15;19.38;;;7.20;1.00;;;7.06;68.69;98812.97;5024194;27;129645;-67
2022/03/26 02:03:19;;;;;;;28.83;16.75;;;7.20;1.00;;;7.04;68.68;98817.06;5038173;27;122180;-66
2022/03/26 02:05:48;;;;;;;33.28;17.42;;;7.20;1.00;;;6.98;69.14;98805.59;5039534;27;122472;-68
2022/03/26 02:08:16;;;;;;;37.10;19.05;;;7.10;1.00;;;6.88;69.71;98790.44;5039090;27;131342;-68
2022/03/26 02:10:45;;;;;;;31.85;17.00;;;7.10;1.00;;;6.96;69.75;98783.53;5023606;27;129969;-67
2022/03/26 02:13:14;;;;;;;36.05;17.83;;;7.10;1.00;;;6.88;70.39;98782.34;5039289;27;119612;-68
2022/03/26 02:15:44;;;;;;;29.23;16.30;;;7.10;1.00;;;6.95;70.81;98773.81;5039331;27;120176;-68
2022/03/26 02:18:13;;;;;;;28.80;15.43;;;7.20;1.00;;;6.94;70.79;98772.25;5024339;27;129519;-67
2022/03/26 02:20:43;;;;;;;28.45;15.52;;;7.30;1.00;;;6.97;71.36;98767.03;5023583;27;130143;-67
2022/03/26 02:23:12;;;;;;;35.03;15.90;;;7.30;1.00;;;7.03;71.08;98756.94;5041673;27;119860;-68
2022/03/26 02:25:40;;;;;;;33.60;15.52;;;7.20;1.00;;;7.07;70.98;98757.91;5031349;27;119604;-68
2022/03/26 02:28:10;;;;;;;30.13;15.30;;;7.20;1.00;;;7.00;71.50;98746.75;5022466;27;129503;-67
2022/03/26 02:30:39;;;;;;;24.80;13.95;;;7.20;1.00;;;6.98;71.79;98744.34;5038576;27;130124;-69
2022/03/26 02:33:07;;;;;;;28.88;14.27;;;7.20;1.00;;;7.01;71.75;98737.53;5039111;27;119715;-67
2022/03/26 02:35:36;;;;;;;26.92;14.68;;;7.20;1.00;;;7.00;72.05;98735.97;5038796;27;119579;-67
2022/03/26 02:38:07;;;;;;;26.17;13.73;;;7.10;1.00;;;6.98;72.36;98738.97;5038680;27;129893;-67
2022/03/26 02:40:36;;;;;;;24.15;12.95;;;7.10;1.00;;;6.92;72.79;98733.97;5038439;27;129608;-68
2022/03/26 02:43:07;;;;;;;23.23;13.30;;;7.00;1.00;;;6.94;72.65;98721.00;5004190;27;119729;-68
2022/03/26 02:45:36;;;;;;;29.05;14.48;;;7.00;1.00;;;6.97;72.37;98731.97;5026348;27;119024;-67
2022/03/26 02:48:05;;;;;;;30.13;15.05;;;7.00;1.00;;;6.96;72.91;98734.97;5047550;27;133153;-68
2022/03/26 02:50:33;;;;;;;26.40;13.73;;;7.00;1.00;;;6.87;73.07;98715.22;5045340;27;130223;-67
2022/03/26 02:53:01;;;;;;;27.33;14.75;;;6.90;1.00;;;6.82;73.50;98714.25;5044638;27;121419;-67
2022/03/26 02:55:32;;;;;;;28.25;13.75;;;6.90;1.00;;;6.76;73.73;98715.47;5045226;27;122487;-70
2022/03/26 02:58:00;;;;;;;25.38;13.60;;;6.90;1.00;;;6.76;74.31;98706.56;5025325;27;129566;-67
2022/03/26 03:00:29;;;;;;;22.25;13.75;;;6.90;1.00;;;6.73;74.33;98694.50;5039024;27;129553;-67
2022/03/26 03:02:59;;;;;;;28.38;14.25;;;6.80;1.00;;;6.73;74.47;98694.50;5038753;27;119916;-67
2022/03/26 03:05:27;;;;;;;26.98;13.35;;;6.80;1.00;;;6.75;74.38;98686.91;5038828;27;119473;-67
2022/03/26 03:07:56;;;;;;;27.20;14.30;;;6.80;1.00;;;6.66;74.61;98683.34;5038241;27;130396;-67
2022/03/26 03:10:25;;;;;;;24.30;14.02;;;6.80;1.00;;;6.68;75.13;98674.94;5038384;27;129292;-67
2022/03/26 03:12:55;;;;;;;28.00;13.82;;;6.80;1.00;;;6.64;75.23;98674.78;5038624;27;121309;-67
2022/03/26 03:15:23;;;;;;;24.60;13.07;;;6.80;1.00;;;6.61;75.60;98659.19;5022959;27;119252;-68
2022/03/26 03:17:53;;;;;;;27.00;13.75;;;6.80;1.00;;;6.65;75.57;98666.38;5040259;27;129564;-67
2022/03/26 03:20:21;;;;;;;26.17;12.70;;;6.80;1.00;;;6.67;75.62;98657.97;5038844;27;129358;-65
2022/03/26 03:22:49;;;;;;;28.00;13.68;;;6.90;1.00;;;6.62;75.54;98652.69;5041778;27;119599;-67
2022/03/26 03:25:18;;;;;;;26.60;12.85;;;6.80;1.00;;;6.65;75.63;98644.00;5042756;27;119311;-68
2022/03/26 03:27:47;;;;;;;26.48;14.32;;;6.80;1.00;;;6.62;75.87;98645.41;5041572;27;129783;-67
2022/03/26 03:30:17;;;;;;;25.58;13.13;;;6.90;1.00;;;6.54;76.43;98645.34;5009771;27;128650;-67
2022/03/26 03:32:45;;;;;;;26.67;14.25;;;6.90;1.00;;;6.63;76.07;98652.38;5042111;27;120110;-68
2022/03/26 03:35:13;;;;;;;30.55;14.13;;;6.90;1.00;;;6.55;76.62;98628.06;5027011;27;119401;-68
2022/03/26 03:37:42;;;;;;;26.02;13.45;;;6.80;1.00;;;6.51;76.49;98637.88;5040920;27;129701;-66
2022/03/26 03:40:13;;;;;;;28.48;14.10;;;6.80;1.00;;;6.49;76.53;98635.47;5044382;27;131633;-68
2022/03/26 03:42:41;;;;;;;27.00;12.68;;;6.70;1.00;;;6.59;76.68;98639.81;5040482;27;121976;-68
2022/03/26 03:45:11;;;;;;;25.58;13.13;;;6.70;1.00;;;6.51;77.00;98632.47;5026113;27;120740;-68
2022/03/26 03:47:42;;;;;;;25.88;13.05;;;6.70;1.00;;;6.51;77.14;98619.78;5026211;27;129325;-68
2022/03/26 03:50:11;;;;;;;31.73;13.40;;;6.70;1.00;;;6.51;77.20;98610.91;5041197;27;129288;-68
2022/03/26 03:52:39;;;;;;;31.23;15.43;;;6.70;1.00;;;6.58;76.92;98601.28;5026496;27;119437;-68
2022/03/26 03:55:09;;;;;;;29.52;14.98;;;6.70;1.00;;;6.55;77.30;98611.91;5041345;27;119533;-67
2022/03/26 03:57:42;;;;;;;23.73;13.90;;;6.70;1.00;;;6.58;77.65;98603.19;5026254;27;130029;-68
2022/03/26 04:00:13;;;;;;;28.40;13.55;;;6.70;1.00;;;6.54;78.01;98583.34;5023229;27;130112;-68
2022/03/26 04:02:43;;;;;;;27.38;13.10;;;6.70;1.00;;;6.59;77.71;98580.50;5025853;27;118832;-68
2022/03/26 04:05:13;;;;;;;26.90;13.98;;;6.80;1.00;;;6.62;77.83;98588.81;5041508;27;119608;-69
2022/03/26 04:07:42;;;;;;;29.27;13.65;;;6.70;1.00;;;6.60;77.83;98582.13;5039712;27;130925;-68
2022/03/26 04:10:11;;;;;;;28.80;12.88;;;6.70;1.00;;;6.61;77.96;98572.94;5040846;27;129466;-67
2022/03/26 04:12:42;;;;;;;29.00;14.52;;;6.80;1.00;;;6.61;78.48;98572.94;5026025;27;119214;-66
2022/03/26 04:15:13;;;;;;;26.35;13.43;;;6.80;1.00;;;6.64;78.16;98565.00;5041281;27;119570;-68
2022/03/26 04:17:43;;;;;;;26.63;13.13;;;6.70;1.00;;;6.63;78.36;98565.31;5040648;27;130638;-69
2022/03/26 04:20:12;;;;;;;26.42;13.63;;;6.70;1.00;;;6.68;78.38;98567.88;5040720;27;129313;-66
2022/03/26 04:22:41;;;;;;;28.05;13.60;;;6.70;1.00;;;6.65;78.58;98563.09;5042556;27;120030;-67
2022/03/26 04:25:11;;;;;;;27.08;14.15;;;6.70;1.00;;;6.70;78.39;98568.38;5023043;27;120158;-67
2022/03/26 04:27:44;;;;;;;24.50;13.20;;;6.80;1.00;;;6.67;78.83;98550.13;5040567;27;130051;-67
2022/03/26 04:30:13;;;;;;;24.38;12.98;;;6.80;1.00;;;6.74;78.43;98545.06;5040392;27;129667;-68
2022/03/26 04:32:43;;;;;;;27.48;14.00;;;6.80;1.00;;;6.83;77.93;98531.66;5039768;27;122283;-68
2022/03/26 04:35:12;;;;;;;23.80;14.18;;;6.80;1.00;;;6.75;78.35;98535.88;5039371;27;122090;-68
2022/03/26 04:37:41;;;;;;;28.67;13.35;;;6.70;1.00;;;6.74;78.63;98530.81;5008814;27;128924;-66
2022/03/26 04:40:11;;;;;;;27.88;13.43;;;6.80;1.00;;;6.77;78.91;98527.50;5040481;27;130376;-68
2022/03/26 04:42:40;;;;;;;24.17;14.00;;;6.80;1.00;;;6.77;78.65;98517.50;5025835;27;119069;-67
2022/03/26 04:45:10;;;;;;;29.65;14.20;;;6.80;1.00;;;6.90;78.60;98520.41;5040507;27;119345;-67
2022/03/26 04:47:39;;;;;;;30.75;13.55;;;6.80;1.00;;;6.88;78.15;98507.22;5040177;27;129911;-66
2022/03/26 04:50:12;;;;;;;27.27;13.98;;;6.80;1.00;;;6.95;78.33;98512.16;5043727;27;129986;-67
2022/03/26 04:52:42;;;;;;;27.40;14.13;;;6.80;1.00;;;6.92;78.21;98512.78;5041646;27;120060;-68
2022/03/26 04:55:12;;;;;;;30.30;13.90;;;6.80;1.00;;;6.89;78.46;98519.63;5040618;27;119924;-67
2022/03/26 04:57:42;;;;;;;24.88;13.90;;;6.80;1.00;;;6.98;78.20;98523.16;5042062;27;129823;-67
2022/03/26 05:00:14;;;;;;;31.48;15.63;;;6.90;1.00;;;6.97;78.28;98532.34;5040013;27;129377;-67
2022/03/26 05:02:43;;;;;;;30.10;14.40;;;6.90;1.00;;;6.97;78.17;98537.75;5040433;27;120276;-70
2022/03/26 05:05:15;;;;;;;29.15;15.35;;;6.90;1.00;;;6.91;78.57;98527.41;5040209;27;119426;-66
2022/03/26 05:07:46;;;;;;;27.80;14.40;;;6.90;1.00;;;6.89;78.57;98525.00;5039911;27;129909;-67
2022/03/26 05:10:17;;;;;;;27.38;14.73;;;6.90;1.00;;;6.88;78.57;98517.22;5024634;27;130302;-70
2022/03/26 05:12:46;;;;;;;28.58;15.13;;;6.90;1.00;;;6.97;78.63;98515.38;5025357;27;118614;-70
2022/03/26 05:15:16;;;;;;;28.08;15.32;;;6.90;1.00;;;7.03;78.26;98500.63;5022714;27;119581;-66
2022/03/26 05:17:46;;;;;;;39.08;17.90;;;6.90;1.00;;;7.00;78.45;98498.56;5039847;27;130401;-66
2022/03/26 05:20:16;;;;;;;31.73;16.13;;;6.90;1.00;;;6.99;78.63;98483.47;5040199;27;129644;-69
2022/03/26 05:22:46;;;;;;;44.47;20.98;;;6.90;1.00;;;6.99;78.69;98508.53;5023032;27;122324;-67
2022/03/26 05:25:15;;;;;;;33.17;17.70;;;6.90;1.00;;;6.96;78.90;98494.88;5026019;27;120799;-67
2022/03/26 05:27:47;;;;;;;36.15;16.85;;;6.90;1.00;;;7.05;78.56;98503.81;5041076;27;129896;-68
2022/03/26 05:30:16;;;;;;;37.42;17.27;;;6.90;1.00;;;7.03;78.45;98492.53;5039971;27;129462;-69
2022/03/26 05:32:45;;;;;;;39.78;17.15;;;6.90;1.00;;;6.97;78.83;98505.38;5039720;27;119451;-70
2022/03/26 05:35:16;;;;;;;34.72;18.33;;;6.90;1.00;;;6.98;78.95;98490.78;5025057;27;119118;-69
2022/03/26 05:37:49;;;;;;;35.88;16.77;;;6.80;1.00;;;6.97;79.21;98504.59;5024516;27;129620;-73
2022/03/26 05:40:21;;;;;;;32.97;14.73;;;6.90;1.00;;;6.87;80.24;98494.06;5025116;27;128245;-75
2022/03/26 05:42:52;;;;;;;33.03;16.92;;;6.80;1.00;;;6.81;81.15;98491.50;5024641;27;119272;-73
2022/03/26 05:45:22;;;;;;;32.88;17.75;;;6.80;1.00;;;6.79;82.21;98493.72;5024527;27;119281;-70
2022/03/26 05:47:51;;;;;;;32.78;17.35;;;6.70;1.00;;;6.64;83.35;98492.22;5038778;27;129755;-71
2022/03/26 05:50:24;;;;;;;27.45;14.85;;;6.70;1.00;;;6.54;84.17;98478.22;5024003;27;129300;-74
2022/03/26 05:52:54;;;;;;;31.17;16.73;;;6.60;1.00;;;6.63;85.03;98469.06;5007861;27;119037;-72
2022/03/26 05:55:26;;;;;;;31.85;17.10;;;6.50;1.00;;;6.66;85.99;98462.25;5024819;27;119565;-72
2022/03/26 05:57:55;;;;;;;28.02;15.73;;;6.50;1.00;;;6.61;87.22;98473.19;5039397;27;130341;-69
2022/03/26 06:00:25;;;;;;;31.25;16.77;;;6.30;1.00;;;6.52;87.95;98469.66;5041665;27;130305;-71
2022/03/26 06:02:55;;;;;;;32.53;16.92;;;6.30;1.00;;;6.42;88.21;98462.59;5027083;27;119274;-71
2022/03/26 06:05:25;;;;;;;31.98;16.60;;;6.40;1.00;;;6.42;88.36;98474.19;5022144;27;119978;-72
2022/03/26 06:07:54;;;;;;;29.73;16.67;;;6.40;1.00;;;6.62;87.57;98461.28;4990542;27;128692;-72
2022/03/26 06:10:23;;;;;;;29.98;16.73;;;6.40;1.00;;;6.63;87.17;98471.75;5024130;27;129083;-71
2022/03/26 06:12:52;;;;;;;28.95;17.55;;;6.40;1.00;;;6.76;87.20;98472.78;5038271;27;121927;-74
2022/03/26 06:15:21;;;;;;;30.83;17.13;;;6.50;1.00;;;6.83;86.56;98456.13;5024608;27;121082;-72
2022/03/26 06:17:52;;;;;;;29.48;16.92;;;6.50;1.00;;;6.81;86.86;98440.25;5004339;27;130222;-73
2022/03/26 06:20:21;;;;;;;36.00;17.88;;;6.50;1.00;;;6.84;86.22;98442.34;5041409;27;128996;-73
2022/03/26 06:22:54;;;;;;;31.33;16.52;;;6.40;1.00;;;6.99;86.41;98453.81;4936323;28;120338;-70
2022/03/26 06:25:23;;;;;;;27.27;14.93;;;6.50;1.00;;;6.87;86.42;98430.13;5008708;28;120212;-73
2022/03/26 06:27:52;;;;;;;29.98;16.98;;;6.60;1.00;;;6.99;85.02;98437.63;5014307;28;129390;-72
2022/03/26 06:30:21;;;;;;;29.77;16.05;;;6.60;1.00;;;7.05;85.52;98436.38;5018551;28;129589;-70
2022/03/26 06:32:51;;;;;;;30.27;16.38;;;6.70;1.00;;;7.26;83.59;98441.16;5000307;28;119980;-70
2022/03/26 06:35:21;;;;;;;33.28;17.27;;;6.80;1.00;;;7.37;83.30;98423.56;5003342;28;118460;-73
2022/03/26 06:37:56;;;;;;;33.38;17.35;;;7.00;1.00;;;7.51;83.11;98424.22;5000557;28;129423;-72
2022/03/26 06:40:26;;;;;;;30.30;17.15;;;7.00;1.00;;;7.63;82.71;98444.38;5017956;28;129459;-71
2022/03/26 06:42:55;;;;;;;33.33;17.65;;;7.10;1.00;;;7.69;81.89;98441.19;5011255;28;119604;-72
2022/03/26 06:45:24;;;;;;;25.08;14.95;;;7.10;1.00;;;7.71;81.72;98467.88;4987623;28;118140;-72
2022/03/26 06:47:53;;;;;;;29.05;16.02;;;7.20;1.00;;;7.79;81.25;98450.91;4983369;28;129668;-72
2022/03/26 06:50:22;;;;;;;33.13;16.63;;;7.20;1.00;;;7.51;80.91;98464.72;4952420;28;129478;-74
2022/03/26 06:52:54;;;;;;;29.92;15.02;;;7.00;1.00;;;7.52;81.72;98455.47;5014730;28;119638;-75
2022/03/26 06:55:24;;;;;;;25.42;14.68;;;7.10;1.00;;;7.55;81.90;98444.03;5002730;28;119231;-71
2022/03/26 06:57:52;;;;;;;29.05;15.57;;;7.20;1.00;;;7.56;81.86;98434.84;5000694;28;128931;-73
2022/03/26 07:00:20;;;;;;;26.67;14.90;;;7.10;1.00;;;7.51;82.45;98432.31;4985233;28;129111;-70
2022/03/26 07:02:49;;;;;;;29.83;15.35;;;7.20;1.00;;;7.53;81.70;98462.47;5015414;28;121480;-71
2022/03/26 07:05:19;;;;;;;29.80;14.98;;;7.20;1.00;;;7.76;81.23;98427.22;4977888;28;121201;-71
2022/03/26 07:07:47;;;;;;;22.90;14.35;;;7.20;1.00;;;7.46;82.12;98429.75;5019044;28;130186;-70
2022/03/26 07:10:18;;;;;;;28.63;14.95;;;7.20;1.00;;;7.60;81.34;98428.81;5016344;28;129703;-72
2022/03/26 07:12:48;;;;;;;26.65;14.88;;;7.20;1.00;;;7.57;82.05;98430.22;5004445;28;119744;-73
2022/03/26 07:15:17;;;;;;;26.15;13.45;;;7.20;1.00;;;7.66;81.03;98454.53;5002418;28;119267;-77
2022/03/26 07:17:45;;;;;;;24.80;13.75;;;7.30;1.00;;;7.67;81.34;98434.53;5000734;28;129927;-71
2022/03/26 07:20:14;;;;;;;24.70;13.65;;;7.30;1.00;;;7.91;80.38;98415.13;5000976;28;129507;-71
2022/03/26 07:22:43;;;;;;;25.40;13.65;;;7.50;1.00;;;8.12;79.51;98407.16;4989882;28;119136;-72
2022/03/26 07:25:12;;;;;;;26.90;13.30;;;7.60;1.00;;;8.17;78.80;98425.09;5002528;28;119484;-71
2022/03/26 07:27:48;;;;;;;22.10;11.60;;;7.60;1.00;;;8.32;77.99;98400.25;5021727;28;130610;-74
2022/03/26 07:30:27;;;;;;;24.55;14.13;;;7.70;1.00;;;8.34;78.36;98416.16;4992953;28;130335;-72
2022/03/26 07:33:00;;;;;;;22.23;12.68;;;7.70;1.00;;;8.39;78.32;98405.16;5007211;28;118888;-73
2022/03/26 07:35:35;;;;;;;28.20;13.70;;;7.80;1.00;;;8.27;78.19;98387.72;4991140;28;119317;-72
2022/03/26 07:38:06;;;;;;;27.45;14.20;;;7.70;1.00;;;8.16;78.76;98386.47;5026209;28;130083;-71
2022/03/26 07:40:35;;;;;;;28.20;12.82;;;7.60;1.00;;;8.08;79.05;98390.00;5004794;28;129943;-74
2022/03/26 07:43:31;;;;;;;25.90;13.15;;;7.60;1.00;;;8.26;79.08;98398.84;5023163;28;119564;-73
2022/03/26 07:46:00;;;;;;;26.02;14.02;;;7.70;1.00;;;8.16;78.98;98383.75;5020356;28;119440;-72
2022/03/26 07:48:30;;;;;;;22.83;12.25;;;7.70;1.00;;;8.24;78.90;98392.97;5004892;28;129513;-72
2022/03/26 07:51:02;;;;;;;20.85;12.02;;;7.70;1.00;;;8.12;79.12;98382.84;4988694;28;129451;-71
2022/03/26 07:53:36;;;;;;;24.13;12.93;;;7.70;1.00;;;7.96;79.83;98387.16;5017814;28;122196;-72
2022/03/26 07:56:06;;;;;;;25.88;13.93;;;7.70;1.00;;;8.24;78.88;98358.63;4972608;28;123657;-71
2022/03/26 07:58:36;;;;;;;21.80;12.05;;;7.80;1.00;;;8.28;79.01;98361.47;5003793;28;129955;-71
2022/03/26 08:01:06;;;;;;;24.50;12.55;;;7.70;1.00;;;8.13;79.32;98365.47;4991426;28;129384;-72
2022/03/26 08:03:35;;;;;;;21.38;12.45;;;7.70;1.00;;;8.01;79.90;98379.69;5000747;28;120141;-75
2022/03/26 08:06:04;;;;;;;24.73;13.48;;;7.60;1.00;;;7.97;80.30;98367.13;5002087;28;119595;-74
2022/03/26 08:08:32;;;;;;;23.25;13.45;;;7.50;1.00;;;8.01;80.28;98359.94;4985598;28;128868;-74
2022/03/26 08:11:03;;;;;;;22.20;12.90;;;7.60;1.00;;;7.97;80.47;98378.72;5000779;28;129654;-73
2022/03/26 08:13:33;;;;;;;24.95;12.40;;;7.60;1.00;;;7.90;80.82;98352.22;5000716;28;119306;-77
2022/03/26 08:16:04;;;;;;;27.80;13.35;;;7.50;1.00;;;7.91;81.05;98353.78;5003802;28;120376;-72
2022/03/26 08:18:33;;;;;;;23.70;12.55;;;7.50;1.00;;;7.72;81.81;98353.34;4999027;28;130414;-73
2022/03/26 08:21:02;;;;;;;24.35;12.43;;;7.50;1.00;;;7.69;82.41;98351.28;4985911;28;129048;-72
2022/03/26 08:23:32;;;;;;;24.23;11.98;;;7.40;1.00;;;7.63;82.36;98360.66;5001551;28;120144;-74
2022/03/26 08:28:47;;;;;;;24.20;13.37;;;7.30;1.00;;;7.55;82.94;98343.38;5003878;28;130084;-74
2022/03/26 08:31:21;;;;;;;25.95;13.98;;;7.30;1.00;;;7.67;83.04;98342.72;4982913;28;129677;-72
2022/03/26 08:33:51;;;;;;;26.23;11.55;;;7.30;1.00;;;7.62;82.58;98334.78;4985798;28;118330;-78
2022/03/26 08:36:21;;;;;;;22.75;13.25;;;7.30;1.00;;;7.69;82.55;98327.78;5005694;28;119550;-75
2022/03/26 08:38:51;;;;;;;22.85;13.60;;;7.30;1.00;;;7.81;82.52;98329.81;5020068;28;129971;-74
2022/03/26 08:41:22;;;;;;;19.73;12.98;;;7.40;1.00;;;7.85;82.46;98344.28;4988556;28;129228;-69
2022/03/26 08:43:52;;;;;;;21.40;12.73;;;7.40;1.00;;;7.68;83.03;98350.50;5021908;28;122968;-76
2022/03/26 08:46:23;;;;;;;21.10;12.35;;;7.40;1.00;;;7.78;82.51;98338.56;4986117;28;122303;-72
2022/03/26 08:48:52;;;;;;;22.05;12.88;;;7.40;1.00;;;7.77;82.87;98331.56;5017418;28;129810;-76
2022/03/26 08:51:23;;;;;;;24.52;12.63;;;7.30;1.00;;;7.62;83.46;98329.38;5008235;28;129777;-73
2022/03/26 08:53:52;;;;;;;18.00;11.02;;;7.30;1.00;;;7.61;83.99;98338.59;4986731;28;119974;-73
2022/03/26 08:56:24;;;;;;;22.58;12.00;;;7.30;1.00;;;7.53;84.10;98343.69;5005501;28;118934;-75
2022/03/26 08:58:53;;;;;;;27.38;13.15;;;7.30;1.00;;;7.68;83.93;98338.91;5004809;28;129269;-74
2022/03/26 09:01:22;;;;;;;24.40;13.05;;;7.30;1.00;;;7.80;83.58;98335.56;5020043;28;130130;-72
2022/03/26 09:03:51;;;;;;;23.70;12.48;;;7.40;1.00;;;7.73;83.43;98330.66;5019895;28;119375;-73
2022/03/26 09:06:23;;;;;;;21.10;11.40;;;7.40;1.00;;;7.65;83.94;98334.13;5005318;28;119540;-75
2022/03/26 09:08:52;;;;;;;23.00;12.50;;;7.40;1.00;;;7.60;84.39;98347.81;5003723;28;127218;-76
2022/03/26 09:11:22;;;;;;;21.23;11.82;;;7.30;1.00;;;7.61;84.08;98336.69;5004192;28;129333;-76
2022/03/26 09:13:52;;;;;;;22.50;12.13;;;7.40;1.00;;;7.69;84.06;98340.50;5020173;28;119730;-73
2022/03/26 09:16:22;;;;;;;21.73;11.82;;;7.40;1.00;;;7.83;83.95;98337.59;5020118;28;120294;-72
2022/03/26 09:18:52;;;;;;;20.73;11.27;;;7.40;1.00;;;7.88;83.32;98348.22;5018376;28;129931;-76
2022/03/26 09:21:21;;;;;;;20.95;11.95;;;7.50;1.00;;;7.74;83.71;98351.13;4999288;28;129111;-75
2022/03/26 09:23:52;;;;;;;25.52;11.98;;;7.50;1.00;;;7.98;82.98;98328.19;5000241;28;120017;-76
2022/03/26 09:26:21;;;;;;;21.13;11.38;;;7.50;1.00;;;8.01;82.43;98338.34;4971360;28;118656;-76
2022/03/26 09:28:50;;;;;;;22.20;11.55;;;7.50;1.00;;;8.00;82.79;98334.06;4992657;28;130267;-72
2022/03/26 09:31:18;;;;;;;21.73;11.10;;;7.50;1.00;;;7.99;82.94;98332.47;4987923;28;128743;-73
2022/03/26 09:33:50;;;;;;;20.15;11.05;;;7.50;1.00;;;7.86;83.38;98335.03;4995191;28;122341;-74
2022/03/26 09:36:18;;;;;;;19.90;11.02;;;7.40;1.00;;;7.69;84.25;98341.28;4968548;28;121632;-72
2022/03/26 09:38:47;;;;;;;21.60;10.20;;;7.30;1.00;;;7.65;84.59;98334.94;4994020;28;128444;-75
2022/03/26 09:41:17;;;;;;;18.65;10.38;;;7.40;1.00;;;7.78;84.21;98349.38;5010004;28;129699;-74
2022/03/26 09:43:52;;;;;;;20.95;11.10;;;7.30;1.00;;;7.59;84.49;98359.72;5019650;28;119962;-73
2022/03/26 09:46:23;;;;;;;21.40;10.70;;;7.20;1.00;;;7.43;85.38;98338.59;4972570;28;118331;-77
2022/03/26 09:48:53;;;;;;;19.35;10.75;;;7.20;1.00;;;7.23;86.57;98350.84;5004240;28;128837;-75
2022/03/26 09:51:28;;;;;;;24.60;11.50;;;7.10;1.00;;;7.08;87.48;98344.00;5004632;28;129146;-75
2022/03/26 09:53:57;;;;;;;23.73;12.23;;;7.10;1.00;;;7.20;86.90;98363.06;5003829;28;118886;-73
2022/03/26 09:56:28;;;;;;;19.58;10.80;;;7.10;1.00;;;7.07;87.71;98342.41;5018953;28;119712;-77
2022/03/26 09:58:57;;;;;;;16.70;9.40;;;7.10;1.00;;;7.31;86.54;98384.34;5017493;28;131099;-76
2022/03/26 10:01:26;;;;;;;19.40;9.63;;;7.20;1.00;;;7.60;85.18;98343.19;4987069;28;129057;-76
2022/03/26 10:04:13;;;;;;;18.10;9.73;;;7.30;1.00;;;7.58;84.76;98347.34;5004161;28;119194;-74
2022/03/26 10:06:49;;;;;;;17.45;9.30;;;7.20;1.00;;;7.51;84.57;98348.63;5004372;28;118770;-74
2022/03/26 10:09:33;;;;;;;16.73;8.27;;;7.20;1.00;;;7.40;84.50;98350.03;4987419;28;129138;-74
2022/03/26 10:12:05;;;;;;;20.08;10.65;;;7.20;1.00;;;7.53;84.18;98359.88;5004019;28;129213;-73
2022/03/26 10:14:43;;;;;;;15.73;8.57;;;7.30;1.00;;;7.63;82.89;98352.56;5019409;28;119833;-76
2022/03/26 10:17:18;;;;;;;15.63;8.15;;;7.30;1.00;;;7.69;82.47;98338.56;5018948;28;119399;-73
2022/03/26 10:19:50;;;;;;;13.18;6.82;;;7.40;1.00;;;8.19;79.98;98331.75;5018734;28;129863;-78
2022/03/26 10:22:31;;;;;;;13.20;7.22;;;7.60;1.00;;;8.34;78.44;98360.19;4987411;28;129243;-75
2022/03/26 10:25:05;;;;;;;12.15;5.85;;;7.70;1.00;;;8.87;75.81;98328.28;5017939;28;121837;-74
2022/03/26 10:27:36;;;;;;;14.02;6.07;;;8.00;1.00;;;9.06;74.61;98354.09;5022332;28;122186;-76
2022/03/26 10:30:07;;;;;;;14.55;6.50;;;8.10;1.00;;;9.42;73.46;98355.41;5022949;28;130237;-75
2022/03/26 10:32:39;;;;;;;13.60;5.90;;;8.40;1.00;;;10.00;71.46;98341.94;5006212;28;130169;-75
2022/03/26 10:35:20;;;;;;;16.02;5.70;;;8.70;1.00;;;10.18;70.22;98339.84;5026867;28;120429;-76